Startpagina
METAR-TAF:

METAR-TAF

Vliegvelden :

Keulen, Duitsland

Flughafen Köln-Bonn

breedte: 50-52N, lengte: 007-10E, hoogte: 91 m

Actueel weer

Dit bericht is 21 minuten geleden gemaakt, om 02:50 UTC
Wind 9 kt uit het westen
Temperatuur 19°C
Vochtigheid 73%
Druk 1015 hPa
Zicht 10 km of meer
Weinig wolken op 3600 ft
Verspreide wolken op 5000 ft

METAR: EDDK 240250Z 28009KT 9999 FEW036 SCT050 19/14 Q1015 NOSIG

Tijdstip: 05:11 (03:11 UTC)

Verwachting

Dit bericht is 4 uur en het 11 minuten geleden gemaakt, om 23:00 UTC
Verwachting geldig van 24 om 00 UTC tot 25 om 06 UTC
Wind 3 kt uit variabele richting
Zicht 10 km of meer
Verspreide wolken op 4000 ft
Wijzigt naar
van 24 om 00 UTC tot 24 om 03 UTC
Wind 7 kt uit het westen
Wijzigt naar
van 24 om 15 UTC tot 24 om 18 UTC
Wind 2 kt uit variabele richting

TAF: EDDK 232300Z 2400/2506 VRB03KT 9999 SCT040 BECMG 2400/2403 26007KT BECMG 2415/2418 VRB02KT

Waarnemingen en weersverwachtingen van meer dan 4000 vliegvelden (METAR en TAF).

De beschikbare stations zijn de gele en rode punten op de kaart.

Ga met uw muis naar het station om de naam te zien.

Klik dan om waarnemingen en weersverwachtingen te zien.

kaart wijzigen: klik op de groene knoppen met een zwart kruis om in te zoomen, op de groene knop met een streepje om uit te zoomen of op de groene pijlen voor aangrenzende kaarten.


METAR-TAF: